sensor_id;sensor_type;location;lat;lon;timestamp;P1;durP1;ratioP1;P2;durP2;ratioP2
11334;SDS011;5722;42.620;23.374;2023-07-09T00:04:21;6.88;;;2.80;;
11334;SDS011;5722;42.620;23.374;2023-07-09T00:09:40;6.10;;;2.63;;
11334;SDS011;5722;42.620;23.374;2023-07-09T00:12:28;4.93;;;2.85;;
11334;SDS011;5722;42.620;23.374;2023-07-09T00:14:56;4.22;;;2.70;;
11334;SDS011;5722;42.620;23.374;2023-07-09T00:17:28;3.92;;;2.92;;
11334;SDS011;5722;42.620;23.374;2023-07-09T00:19:59;3.38;;;2.50;;
11334;SDS011;5722;42.620;23.374;2023-07-09T00:22:37;9.65;;;3.08;;
11334;SDS011;5722;42.620;23.374;2023-07-09T00:25:11;4.60;;;2.78;;
11334;SDS011;5722;42.620;23.374;2023-07-09T00:27:46;3.65;;;2.50;;
11334;SDS011;5722;42.620;23.374;2023-07-09T00:30:20;4.18;;;2.50;;
11334;SDS011;5722;42.620;23.374;2023-07-09T00:32:55;4.15;;;2.65;;
11334;SDS011;5722;42.620;23.374;2023-07-09T00:35:29;6.40;;;2.63;;
11334;SDS011;5722;42.620;23.374;2023-07-09T00:37:57;5.65;;;2.70;;
11334;SDS011;5722;42.620;23.374;2023-07-09T00:40:34;4.82;;;2.83;;
11334;SDS011;5722;42.620;23.374;2023-07-09T00:43:01;9.20;;;2.97;;
11334;SDS011;5722;42.620;23.374;2023-07-09T00:45:29;4.32;;;2.90;;
11334;SDS011;5722;42.620;23.374;2023-07-09T00:48:11;4.18;;;2.70;;
11334;SDS011;5722;42.620;23.374;2023-07-09T00:50:52;2.75;;;2.40;;
11334;SDS011;5722;42.620;23.374;2023-07-09T00:53:33;5.22;;;2.85;;
11334;SDS011;5722;42.620;23.374;2023-07-09T00:58:50;4.50;;;2.33;;
11334;SDS011;5722;42.620;23.374;2023-07-09T01:01:22;4.90;;;2.83;;
11334;SDS011;5722;42.620;23.374;2023-07-09T01:03:50;5.15;;;2.60;;
11334;SDS011;5722;42.620;23.374;2023-07-09T01:06:28;5.32;;;2.65;;
11334;SDS011;5722;42.620;23.374;2023-07-09T01:09:15;4.75;;;3.05;;
11334;SDS011;5722;42.620;23.374;2023-07-09T01:11:48;6.95;;;2.65;;
11334;SDS011;5722;42.620;23.374;2023-07-09T01:14:22;3.97;;;2.58;;
11334;SDS011;5722;42.620;23.374;2023-07-09T01:16:52;7.80;;;2.92;;
11334;SDS011;5722;42.620;23.374;2023-07-09T01:19:25;4.13;;;2.58;;
11334;SDS011;5722;42.620;23.374;2023-07-09T01:22:05;4.75;;;2.60;;
11334;SDS011;5722;42.620;23.374;2023-07-09T01:24:52;7.80;;;2.67;;
11334;SDS011;5722;42.620;23.374;2023-07-09T01:27:31;12.18;;;2.70;;
11334;SDS011;5722;42.620;23.374;2023-07-09T01:29:59;6.93;;;2.92;;
11334;SDS011;5722;42.620;23.374;2023-07-09T01:32:37;3.78;;;2.65;;
11334;SDS011;5722;42.620;23.374;2023-07-09T01:35:05;4.28;;;2.60;;
11334;SDS011;5722;42.620;23.374;2023-07-09T01:37:44;5.72;;;2.95;;
11334;SDS011;5722;42.620;23.374;2023-07-09T01:40:18;4.88;;;2.75;;
11334;SDS011;5722;42.620;23.374;2023-07-09T01:42:54;3.28;;;2.72;;
11334;SDS011;5722;42.620;23.374;2023-07-09T01:45:37;6.97;;;2.67;;
11334;SDS011;5722;42.620;23.374;2023-07-09T01:48:05;5.03;;;2.70;;
11334;SDS011;5722;42.620;23.374;2023-07-09T01:50:40;7.95;;;2.95;;
11334;SDS011;5722;42.620;23.374;2023-07-09T01:53:16;3.88;;;2.63;;
11334;SDS011;5722;42.620;23.374;2023-07-09T01:55:48;9.15;;;2.90;;
11334;SDS011;5722;42.620;23.374;2023-07-09T01:58:17;9.35;;;2.88;;
11334;SDS011;5722;42.620;23.374;2023-07-09T02:00:54;4.85;;;3.03;;
11334;SDS011;5722;42.620;23.374;2023-07-09T02:03:37;4.40;;;2.70;;
11334;SDS011;5722;42.620;23.374;2023-07-09T02:06:18;4.97;;;2.97;;
11334;SDS011;5722;42.620;23.374;2023-07-09T02:08:49;7.00;;;2.80;;
11334;SDS011;5722;42.620;23.374;2023-07-09T02:11:17;4.18;;;2.80;;
11334;SDS011;5722;42.620;23.374;2023-07-09T02:13:51;4.28;;;2.80;;
11334;SDS011;5722;42.620;23.374;2023-07-09T02:16:23;7.47;;;3.17;;
11334;SDS011;5722;42.620;23.374;2023-07-09T02:18:52;4.80;;;2.92;;
11334;SDS011;5722;42.620;23.374;2023-07-09T02:21:20;6.32;;;3.22;;
11334;SDS011;5722;42.620;23.374;2023-07-09T02:23:57;3.40;;;3.10;;
11334;SDS011;5722;42.620;23.374;2023-07-09T02:26:25;6.50;;;2.97;;
11334;SDS011;5722;42.620;23.374;2023-07-09T02:29:00;8.73;;;3.10;;
11334;SDS011;5722;42.620;23.374;2023-07-09T02:31:34;4.65;;;3.38;;
11334;SDS011;5722;42.620;23.374;2023-07-09T02:34:03;6.15;;;3.13;;
11334;SDS011;5722;42.620;23.374;2023-07-09T02:36:32;5.97;;;3.20;;
11334;SDS011;5722;42.620;23.374;2023-07-09T02:39:06;4.63;;;3.13;;
11334;SDS011;5722;42.620;23.374;2023-07-09T02:41:37;4.10;;;3.13;;
11334;SDS011;5722;42.620;23.374;2023-07-09T02:44:06;4.97;;;3.00;;
11334;SDS011;5722;42.620;23.374;2023-07-09T02:46:48;4.93;;;3.23;;
11334;SDS011;5722;42.620;23.374;2023-07-09T02:49:22;8.93;;;3.47;;
11334;SDS011;5722;42.620;23.374;2023-07-09T02:51:54;5.83;;;3.03;;
11334;SDS011;5722;42.620;23.374;2023-07-09T02:54:24;5.77;;;3.43;;
11334;SDS011;5722;42.620;23.374;2023-07-09T02:56:54;3.77;;;3.37;;
11334;SDS011;5722;42.620;23.374;2023-07-09T02:59:25;4.93;;;3.30;;
11334;SDS011;5722;42.620;23.374;2023-07-09T03:01:54;4.23;;;3.33;;
11334;SDS011;5722;42.620;23.374;2023-07-09T03:04:27;3.73;;;3.30;;
11334;SDS011;5722;42.620;23.374;2023-07-09T03:06:55;4.20;;;3.33;;
11334;SDS011;5722;42.620;23.374;2023-07-09T03:09:24;4.07;;;3.37;;
11334;SDS011;5722;42.620;23.374;2023-07-09T03:11:52;3.90;;;3.37;;
11334;SDS011;5722;42.620;23.374;2023-07-09T03:14:20;6.60;;;3.60;;
11334;SDS011;5722;42.620;23.374;2023-07-09T03:16:47;5.50;;;3.43;;
11334;SDS011;5722;42.620;23.374;2023-07-09T03:19:15;5.80;;;3.30;;
11334;SDS011;5722;42.620;23.374;2023-07-09T03:21:55;4.33;;;3.30;;
11334;SDS011;5722;42.620;23.374;2023-07-09T03:27:31;4.87;;;3.47;;
11334;SDS011;5722;42.620;23.374;2023-07-09T03:30:12;3.60;;;3.30;;
11334;SDS011;5722;42.620;23.374;2023-07-09T03:32:43;4.70;;;3.20;;
11334;SDS011;5722;42.620;23.374;2023-07-09T03:35:15;4.90;;;3.30;;
11334;SDS011;5722;42.620;23.374;2023-07-09T03:37:46;6.77;;;3.60;;
11334;SDS011;5722;42.620;23.374;2023-07-09T03:40:20;9.33;;;4.00;;
11334;SDS011;5722;42.620;23.374;2023-07-09T03:45:38;3.67;;;3.37;;
11334;SDS011;5722;42.620;23.374;2023-07-09T03:48:14;5.97;;;3.43;;
11334;SDS011;5722;42.620;23.374;2023-07-09T03:50:44;7.40;;;3.50;;
11334;SDS011;5722;42.620;23.374;2023-07-09T03:53:15;3.70;;;3.10;;
11334;SDS011;5722;42.620;23.374;2023-07-09T03:55:44;6.70;;;3.57;;
11334;SDS011;5722;42.620;23.374;2023-07-09T03:58:31;4.10;;;3.63;;
11334;SDS011;5722;42.620;23.374;2023-07-09T04:09:27;4.53;;;3.38;;
11334;SDS011;5722;42.620;23.374;2023-07-09T04:11:58;3.88;;;3.28;;
11334;SDS011;5722;42.620;23.374;2023-07-09T04:14:41;4.72;;;3.22;;
11334;SDS011;5722;42.620;23.374;2023-07-09T04:17:12;6.07;;;3.22;;
11334;SDS011;5722;42.620;23.374;2023-07-09T04:19:46;5.97;;;3.63;;
11334;SDS011;5722;42.620;23.374;2023-07-09T04:22:20;4.57;;;3.58;;
11334;SDS011;5722;42.620;23.374;2023-07-09T04:25:01;4.22;;;3.50;;
11334;SDS011;5722;42.620;23.374;2023-07-09T04:27:34;4.45;;;3.63;;
11334;SDS011;5722;42.620;23.374;2023-07-09T04:30:14;6.00;;;3.75;;
11334;SDS011;5722;42.620;23.374;2023-07-09T04:32:49;9.20;;;4.10;;
11334;SDS011;5722;42.620;23.374;2023-07-09T04:35:21;4.32;;;3.90;;
11334;SDS011;5722;42.620;23.374;2023-07-09T04:38:00;5.38;;;3.95;;
11334;SDS011;5722;42.620;23.374;2023-07-09T04:51:29;3.95;;;3.55;;
11334;SDS011;5722;42.620;23.374;2023-07-09T04:54:02;4.30;;;3.15;;
11334;SDS011;5722;42.620;23.374;2023-07-09T04:56:36;4.40;;;3.72;;
11334;SDS011;5722;42.620;23.374;2023-07-09T04:59:11;5.93;;;3.40;;
11334;SDS011;5722;42.620;23.374;2023-07-09T05:01:45;4.60;;;3.88;;
11334;SDS011;5722;42.620;23.374;2023-07-09T05:04:14;5.35;;;3.70;;
11334;SDS011;5722;42.620;23.374;2023-07-09T05:06:50;5.03;;;3.15;;
11334;SDS011;5722;42.620;23.374;2023-07-09T05:09:20;4.75;;;3.35;;
11334;SDS011;5722;42.620;23.374;2023-07-09T05:11:52;4.57;;;3.65;;
11334;SDS011;5722;42.620;23.374;2023-07-09T05:14:28;5.68;;;3.60;;
11334;SDS011;5722;42.620;23.374;2023-07-09T05:17:01;4.15;;;3.30;;
11334;SDS011;5722;42.620;23.374;2023-07-09T05:19:32;4.65;;;3.78;;
11334;SDS011;5722;42.620;23.374;2023-07-09T05:22:06;8.35;;;4.00;;
11334;SDS011;5722;42.620;23.374;2023-07-09T05:24:38;6.50;;;3.75;;
11334;SDS011;5722;42.620;23.374;2023-07-09T05:27:08;4.93;;;3.88;;
11334;SDS011;5722;42.620;23.374;2023-07-09T05:29:37;5.28;;;3.50;;
11334;SDS011;5722;42.620;23.374;2023-07-09T05:32:09;7.43;;;4.05;;
11334;SDS011;5722;42.620;23.374;2023-07-09T05:34:50;9.75;;;4.28;;
11334;SDS011;5722;42.620;23.374;2023-07-09T05:37:31;5.57;;;3.60;;
11334;SDS011;5722;42.620;23.374;2023-07-09T05:40:06;5.97;;;3.70;;
11334;SDS011;5722;42.620;23.374;2023-07-09T05:42:40;7.97;;;3.90;;
11334;SDS011;5722;42.620;23.374;2023-07-09T05:45:17;8.55;;;3.45;;
11334;SDS011;5722;42.620;23.374;2023-07-09T05:48:05;4.13;;;3.58;;
11334;SDS011;5722;42.620;23.374;2023-07-09T05:50:33;5.60;;;3.60;;
11334;SDS011;5722;42.620;23.374;2023-07-09T05:53:13;5.93;;;3.65;;
11334;SDS011;5722;42.620;23.374;2023-07-09T05:55:53;5.93;;;3.60;;
11334;SDS011;5722;42.620;23.374;2023-07-09T05:58:36;4.88;;;3.63;;
11334;SDS011;5722;42.620;23.374;2023-07-09T06:01:17;10.02;;;3.03;;
11334;SDS011;5722;42.620;23.374;2023-07-09T06:03:50;8.50;;;3.35;;
11334;SDS011;5722;42.620;23.374;2023-07-09T06:06:18;7.50;;;3.47;;
11334;SDS011;5722;42.620;23.374;2023-07-09T06:11:39;5.80;;;3.22;;
11334;SDS011;5722;42.620;23.374;2023-07-09T06:14:10;6.85;;;3.53;;
11334;SDS011;5722;42.620;23.374;2023-07-09T06:16:43;7.10;;;3.17;;
11334;SDS011;5722;42.620;23.374;2023-07-09T06:19:14;4.68;;;3.45;;
11334;SDS011;5722;42.620;23.374;2023-07-09T06:21:48;5.80;;;3.35;;
11334;SDS011;5722;42.620;23.374;2023-07-09T06:27:29;7.07;;;3.20;;
11334;SDS011;5722;42.620;23.374;2023-07-09T06:30:04;8.23;;;2.97;;
11334;SDS011;5722;42.620;23.374;2023-07-09T06:32:45;5.53;;;3.22;;
11334;SDS011;5722;42.620;23.374;2023-07-09T06:35:15;5.38;;;3.55;;
11334;SDS011;5722;42.620;23.374;2023-07-09T06:37:44;7.90;;;3.60;;
11334;SDS011;5722;42.620;23.374;2023-07-09T06:49:03;6.55;;;3.47;;
11334;SDS011;5722;42.620;23.374;2023-07-09T06:51:41;4.22;;;3.08;;
11334;SDS011;5722;42.620;23.374;2023-07-09T06:54:15;7.57;;;3.42;;
11334;SDS011;5722;42.620;23.374;2023-07-09T06:57:05;5.03;;;3.42;;
11334;SDS011;5722;42.620;23.374;2023-07-09T06:59:46;4.72;;;3.10;;
11334;SDS011;5722;42.620;23.374;2023-07-09T07:02:20;6.43;;;3.10;;
11334;SDS011;5722;42.620;23.374;2023-07-09T07:04:54;6.43;;;3.38;;
11334;SDS011;5722;42.620;23.374;2023-07-09T07:07:22;6.53;;;3.45;;
11334;SDS011;5722;42.620;23.374;2023-07-09T07:10:00;3.90;;;3.20;;
11334;SDS011;5722;42.620;23.374;2023-07-09T07:12:41;4.30;;;3.42;;
11334;SDS011;5722;42.620;23.374;2023-07-09T07:15:16;5.43;;;3.28;;
11334;SDS011;5722;42.620;23.374;2023-07-09T07:17:57;4.55;;;3.47;;
11334;SDS011;5722;42.620;23.374;2023-07-09T07:29:05;6.30;;;3.05;;
11334;SDS011;5722;42.620;23.374;2023-07-09T07:31:37;6.00;;;3.58;;
11334;SDS011;5722;42.620;23.374;2023-07-09T07:34:16;4.70;;;2.92;;
11334;SDS011;5722;42.620;23.374;2023-07-09T07:36:46;5.25;;;3.33;;
11334;SDS011;5722;42.620;23.374;2023-07-09T07:39:38;4.78;;;3.30;;
11334;SDS011;5722;42.620;23.374;2023-07-09T07:42:08;4.60;;;3.28;;
11334;SDS011;5722;42.620;23.374;2023-07-09T07:47:42;4.82;;;3.42;;
11334;SDS011;5722;42.620;23.374;2023-07-09T07:50:17;6.05;;;3.40;;
11334;SDS011;5722;42.620;23.374;2023-07-09T07:52:59;5.55;;;3.45;;
11334;SDS011;5722;42.620;23.374;2023-07-09T07:55:31;6.22;;;3.05;;
11334;SDS011;5722;42.620;23.374;2023-07-09T07:58:22;4.95;;;3.20;;
11334;SDS011;5722;42.620;23.374;2023-07-09T08:00:58;3.83;;;2.97;;
11334;SDS011;5722;42.620;23.374;2023-07-09T08:03:36;3.40;;;3.10;;
11334;SDS011;5722;42.620;23.374;2023-07-09T08:06:04;5.43;;;3.22;;
11334;SDS011;5722;42.620;23.374;2023-07-09T08:08:37;3.40;;;3.10;;
11334;SDS011;5722;42.620;23.374;2023-07-09T08:11:06;5.00;;;3.55;;
11334;SDS011;5722;42.620;23.374;2023-07-09T08:13:34;4.00;;;3.17;;
11334;SDS011;5722;42.620;23.374;2023-07-09T08:16:08;6.75;;;3.33;;
11334;SDS011;5722;42.620;23.374;2023-07-09T08:18:56;4.97;;;3.33;;
11334;SDS011;5722;42.620;23.374;2023-07-09T08:21:36;3.97;;;3.42;;
11334;SDS011;5722;42.620;23.374;2023-07-09T08:24:13;4.20;;;3.28;;
11334;SDS011;5722;42.620;23.374;2023-07-09T08:26:47;4.57;;;3.38;;
11334;SDS011;5722;42.620;23.374;2023-07-09T08:29:19;4.63;;;3.20;;
11334;SDS011;5722;42.620;23.374;2023-07-09T08:31:50;4.55;;;3.33;;
11334;SDS011;5722;42.620;23.374;2023-07-09T08:43:20;5.15;;;3.38;;
11334;SDS011;5722;42.620;23.374;2023-07-09T08:45:57;6.25;;;3.33;;
11334;SDS011;5722;42.620;23.374;2023-07-09T08:48:31;5.10;;;3.30;;
11334;SDS011;5722;42.620;23.374;2023-07-09T08:51:13;5.20;;;3.55;;
11334;SDS011;5722;42.620;23.374;2023-07-09T08:53:51;4.55;;;3.65;;
11334;SDS011;5722;42.620;23.374;2023-07-09T08:56:25;4.60;;;3.50;;
11334;SDS011;5722;42.620;23.374;2023-07-09T08:59:07;9.10;;;3.78;;
11334;SDS011;5722;42.620;23.374;2023-07-09T09:01:49;5.32;;;3.58;;
11334;SDS011;5722;42.620;23.374;2023-07-09T09:04:43;5.28;;;3.65;;
11334;SDS011;5722;42.620;23.374;2023-07-09T09:07:31;6.05;;;3.35;;
11334;SDS011;5722;42.620;23.374;2023-07-09T09:10:10;7.07;;;3.78;;
11334;SDS011;5722;42.620;23.374;2023-07-09T09:15:36;8.35;;;3.45;;
11334;SDS011;5722;42.620;23.374;2023-07-09T09:18:18;6.80;;;3.70;;
11334;SDS011;5722;42.620;23.374;2023-07-09T09:20:58;4.47;;;3.70;;
11334;SDS011;5722;42.620;23.374;2023-07-09T09:23:36;5.07;;;3.90;;
11334;SDS011;5722;42.620;23.374;2023-07-09T09:26:15;4.35;;;3.53;;
11334;SDS011;5722;42.620;23.374;2023-07-09T09:28:56;4.13;;;3.72;;
11334;SDS011;5722;42.620;23.374;2023-07-09T09:47:34;5.57;;;3.80;;
11334;SDS011;5722;42.620;23.374;2023-07-09T09:50:05;4.85;;;3.90;;
11334;SDS011;5722;42.620;23.374;2023-07-09T09:52:41;5.20;;;3.70;;
11334;SDS011;5722;42.620;23.374;2023-07-09T09:55:24;4.78;;;3.58;;
11334;SDS011;5722;42.620;23.374;2023-07-09T09:58:13;4.32;;;3.50;;
11334;SDS011;5722;42.620;23.374;2023-07-09T10:00:48;5.05;;;3.80;;
11334;SDS011;5722;42.620;23.374;2023-07-09T10:06:12;4.28;;;3.63;;
11334;SDS011;5722;42.620;23.374;2023-07-09T10:08:48;4.43;;;3.85;;
11334;SDS011;5722;42.620;23.374;2023-07-09T10:11:35;4.28;;;3.40;;
11334;SDS011;5722;42.620;23.374;2023-07-09T10:14:31;4.85;;;3.80;;
11334;SDS011;5722;42.620;23.374;2023-07-09T10:20:07;5.75;;;3.58;;
11334;SDS011;5722;42.620;23.374;2023-07-09T10:23:10;6.40;;;3.70;;
11334;SDS011;5722;42.620;23.374;2023-07-09T10:26:08;4.05;;;3.63;;
11334;SDS011;5722;42.620;23.374;2023-07-09T10:28:50;7.13;;;3.65;;
11334;SDS011;5722;42.620;23.374;2023-07-09T10:31:54;4.50;;;3.30;;
11334;SDS011;5722;42.620;23.374;2023-07-09T10:34:31;5.68;;;3.60;;
11334;SDS011;5722;42.620;23.374;2023-07-09T10:37:17;4.20;;;3.30;;
11334;SDS011;5722;42.620;23.374;2023-07-09T11:00:17;4.15;;;3.60;;
11334;SDS011;5722;42.620;23.374;2023-07-09T11:03:07;4.18;;;3.38;;
11334;SDS011;5722;42.620;23.374;2023-07-09T11:05:45;6.28;;;3.45;;
11334;SDS011;5722;42.620;23.374;2023-07-09T11:08:42;3.63;;;3.30;;
11334;SDS011;5722;42.620;23.374;2023-07-09T11:11:28;4.25;;;3.25;;
11334;SDS011;5722;42.620;23.374;2023-07-09T11:14:20;4.22;;;3.15;;
11334;SDS011;5722;42.620;23.374;2023-07-09T11:16:59;3.38;;;3.08;;
11334;SDS011;5722;42.620;23.374;2023-07-09T11:19:40;5.05;;;3.60;;
11334;SDS011;5722;42.620;23.374;2023-07-09T11:22:23;5.00;;;3.40;;
11334;SDS011;5722;42.620;23.374;2023-07-09T11:25:40;3.42;;;3.13;;
11334;SDS011;5722;42.620;23.374;2023-07-09T11:31:34;4.82;;;3.22;;
11334;SDS011;5722;42.620;23.374;2023-07-09T11:34:28;4.35;;;3.08;;
11334;SDS011;5722;42.620;23.374;2023-07-09T11:37:08;3.92;;;3.00;;
11334;SDS011;5722;42.620;23.374;2023-07-09T11:42:46;3.50;;;2.97;;
11334;SDS011;5722;42.620;23.374;2023-07-09T11:45:24;7.05;;;3.15;;
11334;SDS011;5722;42.620;23.374;2023-07-09T11:48:03;4.63;;;2.90;;
11334;SDS011;5722;42.620;23.374;2023-07-09T11:53:59;5.43;;;2.75;;
11334;SDS011;5722;42.620;23.374;2023-07-09T11:56:28;5.10;;;3.17;;
11334;SDS011;5722;42.620;23.374;2023-07-09T11:59:16;3.67;;;3.10;;
11334;SDS011;5722;42.620;23.374;2023-07-09T12:02:00;7.78;;;2.97;;
11334;SDS011;5722;42.620;23.374;2023-07-09T12:04:34;3.83;;;2.65;;
11334;SDS011;5722;42.620;23.374;2023-07-09T12:07:14;3.40;;;3.10;;
11334;SDS011;5722;42.620;23.374;2023-07-09T12:10:09;3.20;;;2.90;;
11334;SDS011;5722;42.620;23.374;2023-07-09T12:12:54;3.30;;;3.00;;
11334;SDS011;5722;42.620;23.374;2023-07-09T12:15:33;4.22;;;2.95;;
11334;SDS011;5722;42.620;23.374;2023-07-09T12:18:19;7.43;;;3.10;;
11334;SDS011;5722;42.620;23.374;2023-07-09T12:20:55;3.80;;;3.20;;
11334;SDS011;5722;42.620;23.374;2023-07-09T12:23:41;5.28;;;2.67;;
11334;SDS011;5722;42.620;23.374;2023-07-09T12:26:30;3.72;;;3.20;;
11334;SDS011;5722;42.620;23.374;2023-07-09T12:29:04;5.68;;;3.08;;
11334;SDS011;5722;42.620;23.374;2023-07-09T12:31:32;6.20;;;3.05;;
11334;SDS011;5722;42.620;23.374;2023-07-09T12:36:48;3.65;;;3.15;;
11334;SDS011;5722;42.620;23.374;2023-07-09T12:39:25;5.05;;;3.13;;
11334;SDS011;5722;42.620;23.374;2023-07-09T12:42:36;5.05;;;3.13;;
11334;SDS011;5722;42.620;23.374;2023-07-09T12:45:17;3.13;;;2.83;;
11334;SDS011;5722;42.620;23.374;2023-07-09T12:47:57;4.65;;;3.00;;
11334;SDS011;5722;42.620;23.374;2023-07-09T12:50:29;5.72;;;2.90;;
11334;SDS011;5722;42.620;23.374;2023-07-09T12:53:14;5.20;;;3.40;;
11334;SDS011;5722;42.620;23.374;2023-07-09T12:58:56;5.03;;;2.75;;
11334;SDS011;5722;42.620;23.374;2023-07-09T13:01:35;2.92;;;2.63;;
11334;SDS011;5722;42.620;23.374;2023-07-09T13:04:03;6.15;;;3.13;;
11334;SDS011;5722;42.620;23.374;2023-07-09T13:09:34;3.35;;;2.92;;
11334;SDS011;5722;42.620;23.374;2023-07-09T13:15:18;4.35;;;3.03;;
11334;SDS011;5722;42.620;23.374;2023-07-09T13:17:47;4.47;;;2.85;;
11334;SDS011;5722;42.620;23.374;2023-07-09T13:20:40;3.70;;;3.00;;
11334;SDS011;5722;42.620;23.374;2023-07-09T13:23:31;3.65;;;2.70;;
11334;SDS011;5722;42.620;23.374;2023-07-09T13:26:29;4.78;;;2.80;;
11334;SDS011;5722;42.620;23.374;2023-07-09T13:29:13;6.70;;;3.17;;
11334;SDS011;5722;42.620;23.374;2023-07-09T13:37:33;3.55;;;3.20;;
11334;SDS011;5722;42.620;23.374;2023-07-09T13:40:23;3.53;;;2.95;;
11334;SDS011;5722;42.620;23.374;2023-07-09T13:43:23;3.53;;;2.85;;
11334;SDS011;5722;42.620;23.374;2023-07-09T13:45:52;10.23;;;3.72;;
11334;SDS011;5722;42.620;23.374;2023-07-09T13:48:40;5.60;;;3.10;;
11334;SDS011;5722;42.620;23.374;2023-07-09T13:51:21;3.88;;;2.90;;
11334;SDS011;5722;42.620;23.374;2023-07-09T13:54:14;4.35;;;2.85;;
11334;SDS011;5722;42.620;23.374;2023-07-09T13:56:56;4.82;;;3.17;;
11334;SDS011;5722;42.620;23.374;2023-07-09T13:59:27;4.90;;;3.28;;
11334;SDS011;5722;42.620;23.374;2023-07-09T14:02:25;3.20;;;2.90;;
11334;SDS011;5722;42.620;23.374;2023-07-09T14:05:10;3.40;;;3.10;;
11334;SDS011;5722;42.620;23.374;2023-07-09T14:07:45;4.13;;;3.10;;
11334;SDS011;5722;42.620;23.374;2023-07-09T14:13:54;3.60;;;2.80;;
11334;SDS011;5722;42.620;23.374;2023-07-09T14:16:40;4.55;;;2.70;;
11334;SDS011;5722;42.620;23.374;2023-07-09T14:19:48;3.90;;;3.15;;
11334;SDS011;5722;42.620;23.374;2023-07-09T14:28:41;4.10;;;2.85;;
11334;SDS011;5722;42.620;23.374;2023-07-09T14:31:24;4.13;;;3.10;;
11334;SDS011;5722;42.620;23.374;2023-07-09T14:34:18;4.90;;;2.72;;
11334;SDS011;5722;42.620;23.374;2023-07-09T14:37:15;5.32;;;3.08;;
11334;SDS011;5722;42.620;23.374;2023-07-09T14:40:02;4.25;;;3.05;;
11334;SDS011;5722;42.620;23.374;2023-07-09T14:42:53;4.13;;;2.90;;
11334;SDS011;5722;42.620;23.374;2023-07-09T15:02:49;3.63;;;3.05;;
11334;SDS011;5722;42.620;23.374;2023-07-09T15:05:30;4.45;;;2.80;;
11334;SDS011;5722;42.620;23.374;2023-07-09T15:08:00;6.18;;;2.75;;
11334;SDS011;5722;42.620;23.374;2023-07-09T15:10:39;4.10;;;2.97;;
11334;SDS011;5722;42.620;23.374;2023-07-09T15:13:19;3.08;;;2.80;;
11334;SDS011;5722;42.620;23.374;2023-07-09T15:15:57;5.47;;;3.22;;
11334;SDS011;5722;42.620;23.374;2023-07-09T15:21:27;4.18;;;2.70;;
11334;SDS011;5722;42.620;23.374;2023-07-09T15:24:14;5.78;;;2.70;;
11334;SDS011;5722;42.620;23.374;2023-07-09T15:27:07;3.20;;;2.78;;
11334;SDS011;5722;42.620;23.374;2023-07-09T15:29:48;4.60;;;3.00;;
11334;SDS011;5722;42.620;23.374;2023-07-09T15:32:34;3.88;;;2.72;;
11334;SDS011;5722;42.620;23.374;2023-07-09T15:35:17;4.80;;;2.63;;
11334;SDS011;5722;42.620;23.374;2023-07-09T15:43:50;3.80;;;2.67;;
11334;SDS011;5722;42.620;23.374;2023-07-09T15:46:31;6.75;;;3.10;;
11334;SDS011;5722;42.620;23.374;2023-07-09T15:49:02;4.43;;;2.85;;
11334;SDS011;5722;42.620;23.374;2023-07-09T15:51:49;3.42;;;2.60;;
11334;SDS011;5722;42.620;23.374;2023-07-09T15:54:31;3.95;;;2.47;;
11334;SDS011;5722;42.620;23.374;2023-07-09T15:57:03;3.70;;;3.10;;
11334;SDS011;5722;42.620;23.374;2023-07-09T15:59:46;5.70;;;2.90;;
11334;SDS011;5722;42.620;23.374;2023-07-09T16:02:15;3.40;;;2.90;;
11334;SDS011;5722;42.620;23.374;2023-07-09T16:04:56;6.15;;;2.97;;
11334;SDS011;5722;42.620;23.374;2023-07-09T16:07:51;3.60;;;2.72;;
11334;SDS011;5722;42.620;23.374;2023-07-09T16:10:36;4.82;;;2.97;;
11334;SDS011;5722;42.620;23.374;2023-07-09T16:13:32;5.03;;;3.00;;
11334;SDS011;5722;42.620;23.374;2023-07-09T16:21:43;3.30;;;3.00;;
11334;SDS011;5722;42.620;23.374;2023-07-09T16:27:16;4.13;;;3.15;;
11334;SDS011;5722;42.620;23.374;2023-07-09T16:29:49;4.50;;;3.03;;
11334;SDS011;5722;42.620;23.374;2023-07-09T16:35:11;5.13;;;3.35;;
11334;SDS011;5722;42.620;23.374;2023-07-09T16:43:31;5.82;;;3.30;;
11334;SDS011;5722;42.620;23.374;2023-07-09T16:46:01;3.75;;;3.40;;
11334;SDS011;5722;42.620;23.374;2023-07-09T16:48:29;5.50;;;3.30;;
11334;SDS011;5722;42.620;23.374;2023-07-09T16:54:02;5.60;;;3.45;;
11334;SDS011;5722;42.620;23.374;2023-07-09T16:56:39;3.85;;;3.45;;
11334;SDS011;5722;42.620;23.374;2023-07-09T16:59:36;5.60;;;3.78;;
11334;SDS011;5722;42.620;23.374;2023-07-09T17:02:35;5.97;;;3.60;;
11334;SDS011;5722;42.620;23.374;2023-07-09T17:08:01;3.63;;;3.28;;
11334;SDS011;5722;42.620;23.374;2023-07-09T17:10:35;3.63;;;3.33;;
11334;SDS011;5722;42.620;23.374;2023-07-09T17:13:05;6.15;;;3.95;;
11334;SDS011;5722;42.620;23.374;2023-07-09T17:32:56;4.20;;;3.70;;
11334;SDS011;5722;42.620;23.374;2023-07-09T17:35:31;7.18;;;3.75;;
11334;SDS011;5722;42.620;23.374;2023-07-09T17:38:00;10.32;;;3.67;;
11334;SDS011;5722;42.620;23.374;2023-07-09T17:40:40;8.50;;;3.70;;
11334;SDS011;5722;42.620;23.374;2023-07-09T17:43:12;5.13;;;3.65;;
11334;SDS011;5722;42.620;23.374;2023-07-09T17:45:42;4.88;;;3.80;;
11334;SDS011;5722;42.620;23.374;2023-07-09T17:51:10;6.35;;;4.10;;
11334;SDS011;5722;42.620;23.374;2023-07-09T17:53:40;3.97;;;3.58;;
11334;SDS011;5722;42.620;23.374;2023-07-09T17:56:26;4.18;;;3.70;;
11334;SDS011;5722;42.620;23.374;2023-07-09T17:58:59;4.65;;;3.90;;
11334;SDS011;5722;42.620;23.374;2023-07-09T18:01:46;9.35;;;3.92;;
11334;SDS011;5722;42.620;23.374;2023-07-09T18:04:39;7.82;;;4.00;;
11334;SDS011;5722;42.620;23.374;2023-07-09T18:18:50;6.45;;;3.63;;
11334;SDS011;5722;42.620;23.374;2023-07-09T18:21:22;5.25;;;3.90;;
11334;SDS011;5722;42.620;23.374;2023-07-09T18:23:55;7.72;;;4.15;;
11334;SDS011;5722;42.620;23.374;2023-07-09T18:26:41;5.22;;;3.80;;
11334;SDS011;5722;42.620;23.374;2023-07-09T18:29:21;3.80;;;3.47;;
11334;SDS011;5722;42.620;23.374;2023-07-09T18:32:00;4.57;;;3.75;;
11334;SDS011;5722;42.620;23.374;2023-07-09T18:34:50;7.38;;;4.15;;
11334;SDS011;5722;42.620;23.374;2023-07-09T18:37:25;6.72;;;4.10;;
11334;SDS011;5722;42.620;23.374;2023-07-09T18:40:10;5.25;;;4.20;;
11334;SDS011;5722;42.620;23.374;2023-07-09T18:42:48;5.32;;;4.32;;
11334;SDS011;5722;42.620;23.374;2023-07-09T18:48:07;5.55;;;3.83;;
11334;SDS011;5722;42.620;23.374;2023-07-09T18:56:23;5.20;;;4.28;;
11334;SDS011;5722;42.620;23.374;2023-07-09T18:58:57;3.97;;;3.58;;
11334;SDS011;5722;42.620;23.374;2023-07-09T19:01:28;5.30;;;4.25;;
11334;SDS011;5722;42.620;23.374;2023-07-09T19:04:04;5.20;;;3.80;;
11334;SDS011;5722;42.620;23.374;2023-07-09T19:06:41;4.82;;;3.90;;
11334;SDS011;5722;42.620;23.374;2023-07-09T19:09:18;4.82;;;4.22;;
11334;SDS011;5722;42.620;23.374;2023-07-09T19:12:00;4.25;;;3.67;;
11334;SDS011;5722;42.620;23.374;2023-07-09T19:14:42;4.22;;;3.83;;
11334;SDS011;5722;42.620;23.374;2023-07-09T19:17:12;5.15;;;3.70;;
11334;SDS011;5722;42.620;23.374;2023-07-09T19:19:56;4.13;;;3.72;;
11334;SDS011;5722;42.620;23.374;2023-07-09T19:22:30;4.40;;;4.00;;
11334;SDS011;5722;42.620;23.374;2023-07-09T19:24:59;5.35;;;3.97;;
11334;SDS011;5722;42.620;23.374;2023-07-09T19:33:12;4.15;;;3.60;;
11334;SDS011;5722;42.620;23.374;2023-07-09T19:35:54;4.63;;;3.20;;
11334;SDS011;5722;42.620;23.374;2023-07-09T19:38:33;4.47;;;3.80;;
11334;SDS011;5722;42.620;23.374;2023-07-09T19:41:37;3.75;;;3.40;;
11334;SDS011;5722;42.620;23.374;2023-07-09T19:44:11;4.38;;;3.60;;
11334;SDS011;5722;42.620;23.374;2023-07-09T19:46:46;4.65;;;3.30;;
11334;SDS011;5722;42.620;23.374;2023-07-09T19:57:42;4.28;;;3.33;;
11334;SDS011;5722;42.620;23.374;2023-07-09T20:00:26;4.53;;;3.42;;
11334;SDS011;5722;42.620;23.374;2023-07-09T20:02:57;5.60;;;3.50;;
11334;SDS011;5722;42.620;23.374;2023-07-09T20:05:35;4.50;;;3.17;;